Startpagina
METAR-TAF:

METAR-TAF

Vliegvelden :

Aéroport de Lille-Lesquin

Rijsel, Frankrijk

breedte: 50-34N, lengte: 003-06E, hoogte: 48 m

Actueel weer

Dit bericht is 26 minuten geleden gemaakt, om 22:30 UTC
Wind 5 kt uit het zuidwesten
Temperatuur 16°C
Vochtigheid 88%
Druk 1017 hPa
Zicht 10 km of meer
Weinig wolken op 4500 ft

METAR: LFQQ 192230Z AUTO 22005KT 9999 FEW045 16/14 Q1017 NOSIG

Tijdstip: 00:56 (22:56 UTC)

Verwachting

Dit bericht is 5 uur en het 56 minuten geleden gemaakt, om 17:00 UTC
Verwachting geldig van 19 om 18 UTC tot 20 om 24 UTC
Wind 8 kt uit het westen
Zicht 10 km of meer
Verspreide wolken op 3000 ft

TAF: LFQQ 191700Z 1918/2024 26008KT 9999 SCT030

Waarnemingen en weersverwachtingen van meer dan 4000 vliegvelden (METAR en TAF).

De beschikbare stations zijn de gele en rode punten op de kaart.

Ga met uw muis naar het station om de naam te zien.

Klik dan om waarnemingen en weersverwachtingen te zien.

kaart wijzigen: klik op de groene knoppen met een zwart kruis om in te zoomen, op de groene knop met een streepje om uit te zoomen of op de groene pijlen voor aangrenzende kaarten.


METAR-TAF: